Time,TemperatureF,DewpointF,PressureIn,WindDirection,WindDirectionDegrees,WindSpeedMPH,WindSpeedGustMPH,Humidity,HourlyPrecipIn,Conditions,Clouds,dailyrainin,SoftwareType,DateUTC
2013-04-27 00:00:00,39.5,35.1,30.22,South,170,2.8,2.8,84,0.00,,,0.00,VWS V14.01,2013-04-27 04:00:00,
2013-04-27 00:01:00,39.5,35.1,30.22,South,186,1.4,2.8,84,0.00,,,0.00,VWS V14.01,2013-04-27 04:01:00,
2013-04-27 00:06:00,39.4,35.0,30.22,SSE,155,2.8,4.2,84,0.00,,,0.00,VWS V14.01,2013-04-27 04:06:00,
2013-04-27 00:11:00,39.1,35.0,30.22,South,169,2.8,5.6,85,0.00,,,0.00,VWS V14.01,2013-04-27 04:11:00,
2013-04-27 00:16:00,39.0,34.9,30.22,SW,217,1.4,5.6,85,0.00,,,0.00,VWS V14.01,2013-04-27 04:16:00,
2013-04-27 00:21:00,38.8,35.0,30.22,SE,137,2.8,8.4,86,0.00,,,0.00,VWS V14.01,2013-04-27 04:21:00,
2013-04-27 00:26:00,38.9,34.8,30.22,SW,226,1.4,8.4,85,0.00,,,0.00,VWS V14.01,2013-04-27 04:26:00,
2013-04-27 00:31:00,39.0,34.9,30.22,SSW,203,1.4,8.4,85,0.00,,,0.00,VWS V14.01,2013-04-27 04:31:00,
2013-04-27 00:36:00,38.7,34.9,30.22,ENE,77,1.4,8.4,86,0.00,,,0.00,VWS V14.01,2013-04-27 04:36:00,
2013-04-27 00:41:00,38.9,34.8,30.22,East,101,1.4,8.4,85,0.00,,,0.00,VWS V14.01,2013-04-27 04:41:00,
2013-04-27 00:46:00,38.8,34.7,30.22,SE,139,0.0,8.4,85,0.00,,,0.00,VWS V14.01,2013-04-27 04:46:00,
2013-04-27 00:51:00,38.5,34.7,30.22,ESE,112,1.4,8.4,86,0.00,,,0.00,VWS V14.01,2013-04-27 04:51:00,
2013-04-27 00:56:00,38.2,34.4,30.22,ESE,109,0.0,8.4,86,0.00,,,0.00,VWS V14.01,2013-04-27 04:56:00,
2013-04-27 01:00:00,39.6,35.2,30.22,SSE,163,2.8,11.2,84,0.00,,,0.00,VWS V14.01,2013-04-27 05:00:00,
2013-04-27 01:01:00,38.0,34.5,30.22,SSE,168,0.0,8.4,87,0.00,,,0.00,VWS V14.01,2013-04-27 05:01:00,
2013-04-27 01:06:00,37.5,34.0,30.22,SSE,148,1.4,8.4,87,0.00,,,0.00,VWS V14.01,2013-04-27 05:06:00,
2013-04-27 01:11:00,37.2,34.0,30.22,South,174,1.4,8.4,88,0.00,,,0.00,VWS V14.01,2013-04-27 05:11:00,
2013-04-27 01:16:00,37.1,34.2,30.22,South,169,1.4,8.4,89,0.00,,,0.00,VWS V14.01,2013-04-27 05:16:00,
2013-04-27 01:21:00,37.0,34.1,30.22,SSE,162,1.4,8.4,89,0.00,,,0.00,VWS V14.01,2013-04-27 05:21:00,
2013-04-27 01:26:00,37.0,34.1,30.22,East,101,4.2,8.4,89,0.00,,,0.00,VWS V14.01,2013-04-27 05:26:00,
2013-04-27 01:31:00,37.2,33.7,30.22,WSW,241,0.0,8.4,87,0.00,,,0.00,VWS V14.01,2013-04-27 05:31:00,
2013-04-27 01:36:00,36.6,33.7,30.22,SSW,196,1.4,8.4,89,0.00,,,0.00,VWS V14.01,2013-04-27 05:36:00,
2013-04-27 01:41:00,36.1,33.2,30.22,SE,140,1.4,8.4,89,0.00,,,0.00,VWS V14.01,2013-04-27 05:41:00,
2013-04-27 01:46:00,36.0,33.6,30.22,SSE,155,1.4,8.4,91,0.00,,,0.00,VWS V14.01,2013-04-27 05:46:00,
2013-04-27 01:51:00,35.7,33.1,30.22,SSW,203,0.0,8.4,90,0.00,,,0.00,VWS V14.01,2013-04-27 05:51:00,
2013-04-27 01:56:00,35.8,33.4,30.22,South,170,0.0,8.4,91,0.00,,,0.00,VWS V14.01,2013-04-27 05:56:00,
2013-04-27 02:00:00,35.2,32.3,30.22,SSE,157,0.0,8.4,89,0.00,,,0.00,VWS V14.01,2013-04-27 06:00:00,
2013-04-27 02:01:00,34.9,31.7,30.22,SW,219,1.4,1.4,88,0.00,,,0.00,VWS V14.01,2013-04-27 06:01:00,
2013-04-27 02:06:00,34.6,32.8,30.22,SSW,212,0.0,1.4,93,0.00,,,0.00,VWS V14.01,2013-04-27 06:06:00,
2013-04-27 02:11:00,34.7,32.9,30.22,SSW,212,0.0,1.4,93,0.00,,,0.00,VWS V14.01,2013-04-27 06:11:00,
2013-04-27 02:16:00,34.9,33.1,30.22,SSE,155,0.0,1.4,93,0.00,,,0.00,VWS V14.01,2013-04-27 06:16:00,
2013-04-27 02:21:00,33.6,30.7,30.22,SSE,158,0.0,1.4,89,0.00,,,0.00,VWS V14.01,2013-04-27 06:21:00,
2013-04-27 02:26:00,34.0,32.5,30.22,SSW,204,0.0,1.4,94,0.00,,,0.00,VWS V14.01,2013-04-27 06:26:00,
2013-04-27 02:31:00,33.7,31.6,30.22,SSW,204,0.0,1.4,92,0.00,,,0.00,VWS V14.01,2013-04-27 06:31:00,
2013-04-27 02:36:00,33.2,31.4,30.22,SSW,205,0.0,1.4,93,0.00,,,0.00,VWS V14.01,2013-04-27 06:36:00,
2013-04-27 02:41:00,33.3,31.5,30.22,SSW,205,0.0,1.4,93,0.00,,,0.00,VWS V14.01,2013-04-27 06:41:00,
2013-04-27 02:46:00,33.3,31.8,30.22,SW,214,0.0,1.4,94,0.00,,,0.00,VWS V14.01,2013-04-27 06:46:00,
2013-04-27 02:51:00,33.4,31.9,30.22,SW,214,0.0,1.4,94,0.00,,,0.00,VWS V14.01,2013-04-27 06:51:00,
2013-04-27 02:56:00,34.0,32.7,30.21,SW,214,0.0,1.4,95,0.00,,,0.00,VWS V14.01,2013-04-27 06:56:00,
2013-04-27 03:00:00,33.4,31.9,30.21,SSE,155,0.0,1.4,94,0.00,,,0.00,VWS V14.01,2013-04-27 07:00:00,
2013-04-27 03:05:00,32.5,30.7,30.22,SSE,156,0.0,1.4,93,0.00,,,0.00,VWS V14.01,2013-04-27 07:05:00,
2013-04-27 03:10:00,32.4,30.9,30.21,SSE,156,0.0,1.4,94,0.00,,,0.00,VWS V14.01,2013-04-27 07:10:00,
2013-04-27 03:15:00,32.9,31.6,30.21,SSE,156,0.0,1.4,95,0.00,,,0.00,VWS V14.01,2013-04-27 07:15:00,
2013-04-27 03:20:00,33.2,31.9,30.21,SSE,156,0.0,1.4,95,0.00,,,0.00,VWS V14.01,2013-04-27 07:20:00,
2013-04-27 03:25:00,32.9,31.6,30.21,SSE,156,0.0,1.4,95,0.00,,,0.00,VWS V14.01,2013-04-27 07:25:00,
2013-04-27 03:30:00,32.3,30.8,30.21,SSE,157,0.0,1.4,94,0.00,,,0.00,VWS V14.01,2013-04-27 07:30:00,
2013-04-27 03:35:00,31.9,30.4,30.21,South,170,0.0,1.4,94,0.00,,,0.00,VWS V14.01,2013-04-27 07:35:00,
2013-04-27 03:40:00,32.1,30.8,30.21,South,173,0.0,1.4,95,0.00,,,0.00,VWS V14.01,2013-04-27 07:40:00,
2013-04-27 03:45:00,32.1,30.8,30.21,South,173,0.0,1.4,95,0.00,,,0.00,VWS V14.01,2013-04-27 07:45:00,
2013-04-27 03:50:00,32.0,30.7,30.21,South,173,0.0,1.4,95,0.00,,,0.00,VWS V14.01,2013-04-27 07:50:00,
2013-04-27 03:55:00,32.1,30.8,30.21,South,173,0.0,1.4,95,0.00,,,0.00,VWS V14.01,2013-04-27 07:55:00,
2013-04-27 04:00:00,31.8,30.5,30.21,South,173,0.0,0.0,95,0.00,,,0.00,VWS V14.01,2013-04-27 08:00:00,
2013-04-27 04:05:00,31.7,30.4,30.21,SSE,165,0.0,0.0,95,0.00,,,0.00,VWS V14.01,2013-04-27 08:05:00,
2013-04-27 04:10:00,31.9,30.6,30.21,SSE,165,0.0,0.0,95,0.00,,,0.00,VWS V14.01,2013-04-27 08:10:00,
2013-04-27 04:15:00,32.4,31.4,30.20,SSE,165,0.0,0.0,96,0.00,,,0.00,VWS V14.01,2013-04-27 08:15:00,
2013-04-27 04:20:00,32.3,31.3,30.21,SSE,165,0.0,0.0,96,0.00,,,0.00,VWS V14.01,2013-04-27 08:20:00,
2013-04-27 04:25:00,32.1,31.1,30.21,SSE,165,0.0,0.0,96,0.00,,,0.00,VWS V14.01,2013-04-27 08:25:00,
2013-04-27 04:30:00,32.0,30.7,30.21,SSE,165,0.0,0.0,95,0.00,,,0.00,VWS V14.01,2013-04-27 08:30:00,
2013-04-27 04:35:00,32.2,31.2,30.21,SSE,148,0.0,0.0,96,0.00,,,0.00,VWS V14.01,2013-04-27 08:35:00,
2013-04-27 04:40:00,32.5,31.5,30.21,SSW,207,0.0,0.0,96,0.00,,,0.00,VWS V14.01,2013-04-27 08:40:00,
2013-04-27 04:45:00,33.1,32.1,30.21,SSW,207,0.0,0.0,96,0.00,,,0.00,VWS V14.01,2013-04-27 08:45:00,
2013-04-27 04:50:00,32.7,31.7,30.21,SSW,207,0.0,0.0,96,0.00,,,0.00,VWS V14.01,2013-04-27 08:50:00,
2013-04-27 04:55:00,31.9,30.9,30.21,SSW,207,0.0,0.0,96,0.00,,,0.00,VWS V14.01,2013-04-27 08:55:00,
2013-04-27 04:56:00,31.8,30.5,30.21,SSW,207,0.0,0.0,95,0.00,,,0.00,VWS V14.01,2013-04-27 08:56:00,
2013-04-27 05:00:00,31.9,30.6,30.21,South,173,0.0,1.4,95,0.00,,,0.00,VWS V14.01,2013-04-27 09:00:00,
2013-04-27 05:01:00,31.4,30.1,30.21,SSW,203,0.0,0.0,95,0.00,,,0.00,VWS V14.01,2013-04-27 09:01:00,
2013-04-27 05:06:00,31.2,29.9,30.21,SSW,198,0.0,0.0,95,0.00,,,0.00,VWS V14.01,2013-04-27 09:06:00,
2013-04-27 05:10:00,31.0,29.7,30.21,SSW,197,0.0,0.0,95,0.00,,,0.00,VWS V14.01,2013-04-27 09:10:00,
2013-04-27 05:15:00,31.7,30.7,30.21,SSW,198,0.0,0.0,96,0.00,,,0.00,VWS V14.01,2013-04-27 09:15:00,
2013-04-27 05:20:00,32.0,31.0,30.21,SSW,197,0.0,0.0,96,0.00,,,0.00,VWS V14.01,2013-04-27 09:20:00,
2013-04-27 05:25:00,31.7,30.7,30.21,SW,224,1.4,2.8,96,0.00,,,0.00,VWS V14.01,2013-04-27 09:25:00,
2013-04-27 05:30:00,31.4,30.4,30.21,SSW,201,0.0,2.8,96,0.00,,,0.00,VWS V14.01,2013-04-27 09:30:00,
2013-04-27 05:35:00,31.3,30.3,30.21,SSW,200,1.4,2.8,96,0.00,,,0.00,VWS V14.01,2013-04-27 09:35:00,
2013-04-27 05:40:00,31.2,30.2,30.20,SSW,200,0.0,2.8,96,0.00,,,0.00,VWS V14.01,2013-04-27 09:40:00,
2013-04-27 05:45:00,31.3,30.3,30.20,SSW,201,0.0,2.8,96,0.00,,,0.00,VWS V14.01,2013-04-27 09:45:00,
2013-04-27 05:50:00,32.0,31.0,30.20,SSW,201,0.0,2.8,96,0.00,,,0.00,VWS V14.01,2013-04-27 09:50:00,
2013-04-27 05:55:00,31.9,30.9,30.20,SSW,201,0.0,2.8,96,0.00,,,0.00,VWS V14.01,2013-04-27 09:55:00,
2013-04-27 06:00:00,31.7,30.7,30.20,SSW,201,0.0,0.0,96,0.00,,,0.00,VWS V14.01,2013-04-27 10:00:00,
2013-04-27 06:05:00,31.8,30.8,30.20,SSW,201,0.0,0.0,96,0.00,,,0.00,VWS V14.01,2013-04-27 10:05:00,
2013-04-27 06:10:00,32.1,31.1,30.20,SSW,201,0.0,0.0,96,0.00,,,0.00,VWS V14.01,2013-04-27 10:10:00,
2013-04-27 06:15:00,32.2,31.2,30.20,SSW,201,0.0,0.0,96,0.00,,,0.00,VWS V14.01,2013-04-27 10:15:00,
2013-04-27 06:20:00,31.9,30.9,30.20,SW,224,0.0,0.0,96,0.00,,,0.00,VWS V14.01,2013-04-27 10:20:00,
2013-04-27 06:25:00,31.4,30.4,30.20,South,191,0.0,1.4,96,0.00,,,0.00,VWS V14.01,2013-04-27 10:25:00,
2013-04-27 06:30:00,31.7,30.7,30.20,South,190,0.0,1.4,96,0.00,,,0.00,VWS V14.01,2013-04-27 10:30:00,
2013-04-27 06:35:00,32.1,31.1,30.20,SW,219,0.0,1.4,96,0.00,,,0.00,VWS V14.01,2013-04-27 10:35:00,
2013-04-27 06:40:00,31.7,30.7,30.20,SW,215,0.0,1.4,96,0.00,,,0.00,VWS V14.01,2013-04-27 10:40:00,
2013-04-27 06:45:00,31.0,30.0,30.21,SSE,162,0.0,1.4,96,0.00,,,0.00,VWS V14.01,2013-04-27 10:45:00,
2013-04-27 06:50:00,30.8,29.8,30.21,ESE,110,0.0,1.4,96,0.00,,,0.00,VWS V14.01,2013-04-27 10:50:00,
2013-04-27 06:55:00,31.1,30.1,30.21,SSW,211,0.0,1.4,96,0.00,,,0.00,VWS V14.01,2013-04-27 10:55:00,
2013-04-27 07:00:00,32.3,31.3,30.21,SSE,161,0.0,2.8,96,0.00,,,0.00,VWS V14.01,2013-04-27 11:00:00,
2013-04-27 07:05:00,32.4,31.4,30.21,WSW,241,0.0,2.8,96,0.00,,,0.00,VWS V14.01,2013-04-27 11:05:00,
2013-04-27 07:10:00,33.3,32.3,30.21,SSE,159,0.0,2.8,96,0.00,,,0.00,VWS V14.01,2013-04-27 11:10:00,
2013-04-27 07:15:00,34.1,33.1,30.21,SE,138,1.4,4.2,96,0.00,,,0.00,VWS V14.01,2013-04-27 11:15:00,
2013-04-27 07:20:00,34.2,33.2,30.21,ESE,123,1.4,4.2,96,0.00,,,0.00,VWS V14.01,2013-04-27 11:20:00,
2013-04-27 07:25:00,34.5,33.5,30.21,SSW,198,1.4,4.2,96,0.00,,,0.00,VWS V14.01,2013-04-27 11:25:00,
2013-04-27 07:30:00,34.8,33.8,30.21,SSE,165,1.4,4.2,96,0.00,,,0.00,VWS V14.01,2013-04-27 11:30:00,
2013-04-27 07:35:00,34.9,33.6,30.21,South,186,1.4,4.2,95,0.00,,,0.00,VWS V14.01,2013-04-27 11:35:00,
2013-04-27 07:40:00,35.0,33.7,30.22,SW,236,0.0,4.2,95,0.00,,,0.00,VWS V14.01,2013-04-27 11:40:00,
2013-04-27 07:45:00,35.2,33.9,30.22,SSW,193,0.0,4.2,95,0.00,,,0.00,VWS V14.01,2013-04-27 11:45:00,
2013-04-27 07:50:00,35.5,34.2,30.22,SSE,152,0.0,4.2,95,0.00,,,0.00,VWS V14.01,2013-04-27 11:50:00,
2013-04-27 07:55:00,35.7,34.4,30.22,SSE,166,1.4,4.2,95,0.00,,,0.00,VWS V14.01,2013-04-27 11:55:00,
2013-04-27 08:00:00,36.0,34.7,30.22,SSW,193,1.4,1.4,95,0.00,,,0.00,VWS V14.01,2013-04-27 12:00:00,
2013-04-27 08:05:00,36.1,34.8,30.22,SSE,163,2.8,2.8,95,0.00,,,0.00,VWS V14.01,2013-04-27 12:05:00,
2013-04-27 08:10:00,36.3,34.7,30.22,SSE,164,0.0,4.2,94,0.00,,,0.00,VWS V14.01,2013-04-27 12:10:00,
2013-04-27 08:15:00,36.7,35.1,30.22,SE,141,1.4,4.2,94,0.00,,,0.00,VWS V14.01,2013-04-27 12:15:00,
2013-04-27 08:20:00,37.4,35.8,30.22,SSE,166,4.2,5.6,94,0.00,,,0.00,VWS V14.01,2013-04-27 12:20:00,
2013-04-27 08:25:00,37.6,35.5,30.22,ESE,118,2.8,7.0,92,0.00,,,0.00,VWS V14.01,2013-04-27 12:25:00,
2013-04-27 08:30:00,37.9,35.8,30.23,SSW,205,2.8,7.0,92,0.00,,,0.00,VWS V14.01,2013-04-27 12:30:00,
2013-04-27 08:35:00,38.4,36.0,30.23,SSE,153,2.8,7.0,91,0.00,,,0.00,VWS V14.01,2013-04-27 12:35:00,
2013-04-27 08:40:00,38.5,36.1,30.23,SSE,150,0.0,7.0,91,0.00,,,0.00,VWS V14.01,2013-04-27 12:40:00,
2013-04-27 08:45:00,38.8,35.8,30.23,East,85,2.8,7.0,89,0.00,,,0.00,VWS V14.01,2013-04-27 12:45:00,
2013-04-27 08:50:00,38.3,35.3,30.23,SE,136,1.4,7.0,89,0.01,,,0.01,VWS V14.01,2013-04-27 12:50:00,
2013-04-27 08:55:00,38.9,36.2,30.23,SSE,167,4.2,7.0,90,0.01,,,0.01,VWS V14.01,2013-04-27 12:55:00,
2013-04-27 09:00:00,39.6,36.6,30.23,SSE,156,2.8,7.0,89,0.01,,,0.01,VWS V14.01,2013-04-27 13:00:00,
2013-04-27 09:05:00,40.2,37.2,30.23,South,169,1.4,7.0,89,0.01,,,0.01,VWS V14.01,2013-04-27 13:05:00,
2013-04-27 09:10:00,40.8,37.2,30.23,East,100,5.6,7.0,87,0.01,,,0.01,VWS V14.01,2013-04-27 13:10:00,
2013-04-27 09:15:00,41.0,37.4,30.23,ESE,119,2.8,7.0,87,0.01,,,0.01,VWS V14.01,2013-04-27 13:15:00,
2013-04-27 09:20:00,40.8,36.9,30.23,SSE,147,1.4,7.0,86,0.01,,,0.01,VWS V14.01,2013-04-27 13:20:00,
2013-04-27 09:25:00,40.9,37.3,30.23,ESE,112,1.4,7.0,87,0.01,,,0.01,VWS V14.01,2013-04-27 13:25:00,
2013-04-27 09:30:00,41.7,37.8,30.23,SSE,165,4.2,7.0,86,0.01,,,0.01,VWS V14.01,2013-04-27 13:30:00,
2013-04-27 09:35:00,42.4,37.9,30.23,ESE,103,1.4,7.0,84,0.01,,,0.01,VWS V14.01,2013-04-27 13:35:00,
2013-04-27 09:36:00,42.4,37.9,30.23,SE,128,1.4,7.0,84,0.01,,,0.01,VWS V14.01,2013-04-27 13:36:00,
2013-04-27 09:41:00,41.6,37.1,30.23,SE,129,7.0,8.4,84,0.01,,,0.01,VWS V14.01,2013-04-27 13:41:00,
2013-04-27 09:48:00,41.5,37.6,30.23,SSE,162,0.0,8.4,86,0.01,,,0.01,VWS V14.01,2013-04-27 13:48:00,
2013-04-27 09:53:00,43.0,38.5,30.23,SSE,154,2.8,8.4,84,0.01,,,0.01,VWS V14.01,2013-04-27 13:53:00,
2013-04-27 09:58:00,43.6,38.8,30.23,ESE,108,2.8,8.4,83,0.01,,,0.01,VWS V14.01,2013-04-27 13:58:00,
2013-04-27 10:00:00,43.6,38.8,30.23,SE,139,2.8,8.4,83,0.01,,,0.01,VWS V14.01,2013-04-27 14:00:00,
2013-04-27 10:03:00,44.0,39.2,30.23,ESE,113,2.8,4.2,83,0.00,,,0.01,VWS V14.01,2013-04-27 14:03:00,
2013-04-27 10:08:00,43.3,38.5,30.22,East,81,7.0,8.4,83,0.00,,,0.01,VWS V14.01,2013-04-27 14:08:00,
2013-04-27 10:13:00,43.5,39.3,30.22,ESE,104,4.2,8.4,85,0.00,,,0.01,VWS V14.01,2013-04-27 14:13:00,
2013-04-27 10:18:00,44.4,39.6,30.22,East,86,4.2,8.4,83,0.00,,,0.01,VWS V14.01,2013-04-27 14:18:00,
2013-04-27 10:23:00,44.8,40.0,30.22,SSE,162,1.4,8.4,83,0.00,,,0.01,VWS V14.01,2013-04-27 14:23:00,
2013-04-27 10:28:00,46.2,40.7,30.22,ESE,115,5.6,8.4,81,0.00,,,0.01,VWS V14.01,2013-04-27 14:28:00,
2013-04-27 10:33:00,46.0,40.2,30.22,ESE,122,4.2,8.4,80,0.00,,,0.01,VWS V14.01,2013-04-27 14:33:00,
2013-04-27 10:38:00,46.8,41.0,30.21,South,186,7.0,8.4,80,0.00,,,0.01,VWS V14.01,2013-04-27 14:38:00,
2013-04-27 10:43:00,46.8,40.3,30.21,ESE,122,5.6,9.8,78,0.00,,,0.01,VWS V14.01,2013-04-27 14:43:00,
2013-04-27 10:48:00,46.5,40.7,30.21,East,94,9.8,11.2,80,0.00,,,0.01,VWS V14.01,2013-04-27 14:48:00,
2013-04-27 10:53:00,46.2,40.7,30.21,East,92,5.6,11.2,81,0.00,,,0.01,VWS V14.01,2013-04-27 14:53:00,
2013-04-27 10:58:00,46.1,40.3,30.21,East,84,8.4,11.2,80,0.00,,,0.01,VWS V14.01,2013-04-27 14:58:00,
2013-04-27 11:00:00,43.6,38.8,30.23,SE,139,2.8,8.4,83,0.01,,,0.01,VWS V14.01,2013-04-27 15:00:00,
2013-04-27 11:03:00,45.6,40.1,30.21,East,99,8.4,11.2,81,0.00,,,0.01,VWS V14.01,2013-04-27 15:03:00,
2013-04-27 11:08:00,45.6,40.4,30.21,ESE,112,8.4,11.2,82,0.00,,,0.01,VWS V14.01,2013-04-27 15:08:00,
2013-04-27 11:13:00,46.1,40.9,30.21,ESE,119,4.2,11.2,82,0.00,,,0.01,VWS V14.01,2013-04-27 15:13:00,
2013-04-27 11:18:00,47.1,41.6,30.21,SSE,158,5.6,11.2,81,0.00,,,0.01,VWS V14.01,2013-04-27 15:18:00,
2013-04-27 11:23:00,47.7,41.8,30.21,ESE,113,5.6,11.2,80,0.00,,,0.01,VWS V14.01,2013-04-27 15:23:00,
2013-04-27 11:28:00,48.1,41.9,30.21,East,100,7.0,11.2,79,0.00,,,0.01,VWS V14.01,2013-04-27 15:28:00,
2013-04-27 11:33:00,48.4,42.2,30.21,East,99,5.6,11.2,79,0.00,,,0.01,VWS V14.01,2013-04-27 15:33:00,
2013-04-27 11:38:00,48.8,42.6,30.21,SE,127,7.0,11.2,79,0.00,,,0.01,VWS V14.01,2013-04-27 15:38:00,
2013-04-27 11:43:00,48.6,42.1,30.21,East,90,5.6,11.2,78,0.00,,,0.01,VWS V14.01,2013-04-27 15:43:00,
2013-04-27 11:48:00,48.5,42.3,30.21,SE,131,8.4,12.6,79,0.00,,,0.01,VWS V14.01,2013-04-27 15:48:00,
2013-04-27 11:53:00,48.5,42.6,30.21,SE,146,8.4,12.6,80,0.00,,,0.01,VWS V14.01,2013-04-27 15:53:00,
2013-04-27 11:58:00,49.4,43.2,30.21,ENE,75,8.4,12.6,79,0.00,,,0.01,VWS V14.01,2013-04-27 15:58:00,
2013-04-27 12:00:00,49.5,42.9,30.21,ESE,115,4.2,12.6,78,0.00,,,0.01,VWS V14.01,2013-04-27 16:00:00,
2013-04-27 12:03:00,49.8,43.2,30.21,East,101,7.0,9.8,78,0.00,,,0.01,VWS V14.01,2013-04-27 16:03:00,
2013-04-27 12:08:00,50.1,43.5,30.20,SE,142,4.2,9.8,78,0.00,,,0.01,VWS V14.01,2013-04-27 16:08:00,
2013-04-27 12:13:00,50.6,43.3,30.20,East,96,7.0,9.8,76,0.00,,,0.01,VWS V14.01,2013-04-27 16:13:00,
2013-04-27 12:18:00,50.8,43.5,30.20,SE,125,5.6,9.8,76,0.00,,,0.01,VWS V14.01,2013-04-27 16:18:00,
2013-04-27 12:23:00,51.0,43.7,30.20,ENE,72,7.0,14.0,76,0.00,,,0.01,VWS V14.01,2013-04-27 16:23:00,
2013-04-27 12:28:00,51.2,43.9,30.20,ESE,123,5.6,14.0,76,0.00,,,0.01,VWS V14.01,2013-04-27 16:28:00,
2013-04-27 12:33:00,51.4,44.4,30.20,ESE,110,7.0,14.0,77,0.00,,,0.01,VWS V14.01,2013-04-27 16:33:00,
2013-04-27 12:38:00,51.7,44.4,30.20,SE,125,5.6,14.0,76,0.00,,,0.01,VWS V14.01,2013-04-27 16:38:00,
2013-04-27 12:43:00,51.9,44.6,30.20,East,95,7.0,14.0,76,0.00,,,0.01,VWS V14.01,2013-04-27 16:43:00,
2013-04-27 12:48:00,52.2,45.2,30.20,East,90,12.6,14.0,77,0.00,,,0.01,VWS V14.01,2013-04-27 16:48:00,
2013-04-27 12:53:00,52.9,45.5,30.19,SE,139,7.0,14.0,76,0.00,,,0.01,VWS V14.01,2013-04-27 16:53:00,
2013-04-27 12:58:00,53.7,45.6,30.19,SE,126,7.0,14.0,74,0.00,,,0.01,VWS V14.01,2013-04-27 16:58:00,
2013-04-27 13:00:00,49.5,42.9,30.21,ESE,115,4.2,12.6,78,0.00,,,0.01,VWS V14.01,2013-04-27 17:00:00,
2013-04-27 13:03:00,53.8,45.7,30.19,ESE,114,7.0,14.0,74,0.00,,,0.01,VWS V14.01,2013-04-27 17:03:00,
2013-04-27 13:08:00,53.8,46.1,30.19,SE,124,8.4,14.0,75,0.00,,,0.01,VWS V14.01,2013-04-27 17:08:00,
2013-04-27 13:13:00,55.2,46.7,30.19,ESE,106,8.4,14.0,73,0.00,,,0.01,VWS V14.01,2013-04-27 17:13:00,
2013-04-27 13:18:00,55.3,46.4,30.18,East,94,8.4,14.0,72,0.00,,,0.01,VWS V14.01,2013-04-27 17:18:00,
2013-04-27 13:23:00,55.4,46.9,30.18,ESE,117,4.2,14.0,73,0.00,,,0.01,VWS V14.01,2013-04-27 17:23:00,
2013-04-27 13:28:00,57.6,47.9,30.18,ESE,110,5.6,14.0,70,0.00,,,0.01,VWS V14.01,2013-04-27 17:28:00,
2013-04-27 13:33:00,59.9,48.9,30.18,South,174,8.4,16.8,67,0.00,,,0.01,VWS V14.01,2013-04-27 17:33:00,
2013-04-27 13:38:00,62.3,49.1,30.18,SSE,160,11.2,16.8,62,0.00,,,0.01,VWS V14.01,2013-04-27 17:38:00,
2013-04-27 13:43:00,63.1,49.5,30.18,SSE,162,9.8,19.6,61,0.00,,,0.01,VWS V14.01,2013-04-27 17:43:00,
2013-04-27 13:48:00,63.7,49.1,30.18,South,185,11.2,19.6,59,0.00,,,0.01,VWS V14.01,2013-04-27 17:48:00,
2013-04-27 13:53:00,63.9,49.3,30.17,South,179,12.6,19.6,59,0.00,,,0.01,VWS V14.01,2013-04-27 17:53:00,
2013-04-27 13:58:00,64.1,49.0,30.17,SW,225,9.8,19.6,58,0.00,,,0.01,VWS V14.01,2013-04-27 17:58:00,
2013-04-27 14:00:00,64.2,48.7,30.17,SSE,163,14.0,19.6,57,0.00,,,0.01,VWS V14.01,2013-04-27 18:00:00,
2013-04-27 14:03:00,64.3,48.8,30.17,SW,224,4.2,19.6,57,0.00,,,0.01,VWS V14.01,2013-04-27 18:03:00,
2013-04-27 14:08:00,64.6,49.0,30.17,SSE,165,8.4,19.6,57,0.00,,,0.01,VWS V14.01,2013-04-27 18:08:00,
2013-04-27 14:13:00,64.4,48.4,30.17,SSE,165,11.2,21.0,56,0.00,,,0.01,VWS V14.01,2013-04-27 18:13:00,
2013-04-27 14:18:00,64.6,48.6,30.17,SSE,155,12.6,22.4,56,0.00,,,0.01,VWS V14.01,2013-04-27 18:18:00,
2013-04-27 14:23:00,64.5,48.5,30.16,SSE,149,5.6,22.4,56,0.00,,,0.01,VWS V14.01,2013-04-27 18:23:00,
2013-04-27 14:28:00,64.7,48.7,30.16,SW,225,7.0,22.4,56,0.00,,,0.01,VWS V14.01,2013-04-27 18:28:00,
2013-04-27 14:33:00,64.7,48.2,30.16,SSE,165,14.0,22.4,55,0.00,,,0.01,VWS V14.01,2013-04-27 18:33:00,
2013-04-27 14:38:00,64.2,48.2,30.16,SSE,162,14.0,22.4,56,0.00,,,0.01,VWS V14.01,2013-04-27 18:38:00,
2013-04-27 14:43:00,64.6,48.6,30.16,South,183,16.8,22.4,56,0.00,,,0.01,VWS V14.01,2013-04-27 18:43:00,
2013-04-27 14:48:00,64.5,48.5,30.16,SSW,198,11.2,22.4,56,0.00,,,0.01,VWS V14.01,2013-04-27 18:48:00,
2013-04-27 14:53:00,64.2,48.2,30.16,SSE,155,8.4,22.4,56,0.00,,,0.01,VWS V14.01,2013-04-27 18:53:00,
2013-04-27 14:58:00,64.0,48.5,30.16,SSW,192,5.6,22.4,57,0.00,,,0.01,VWS V14.01,2013-04-27 18:58:00,
2013-04-27 15:00:00,64.2,48.7,30.17,SSE,163,14.0,19.6,57,0.00,,,0.01,VWS V14.01,2013-04-27 19:00:00,
2013-04-27 15:03:00,63.6,48.6,30.16,South,188,8.4,22.4,58,0.00,,,0.01,VWS V14.01,2013-04-27 19:03:00,
2013-04-27 15:08:00,64.2,48.7,30.15,SSW,213,11.2,22.4,57,0.00,,,0.01,VWS V14.01,2013-04-27 19:08:00,
2013-04-27 15:13:00,64.7,48.7,30.15,South,174,7.0,22.4,56,0.00,,,0.01,VWS V14.01,2013-04-27 19:13:00,
2013-04-27 15:18:00,65.2,48.6,30.15,SSE,158,16.8,22.4,55,0.00,,,0.01,VWS V14.01,2013-04-27 19:18:00,
2013-04-27 15:23:00,65.4,48.8,30.15,SSW,206,4.2,22.4,55,0.00,,,0.01,VWS V14.01,2013-04-27 19:23:00,
2013-04-27 15:28:00,65.1,49.0,30.15,SW,215,4.2,25.2,56,0.00,,,0.01,VWS V14.01,2013-04-27 19:28:00,
2013-04-27 15:33:00,65.3,49.2,30.15,South,179,9.8,25.2,56,0.00,,,0.01,VWS V14.01,2013-04-27 19:33:00,
2013-04-27 15:38:00,65.5,49.4,30.15,SSW,212,2.8,25.2,56,0.00,,,0.01,VWS V14.01,2013-04-27 19:38:00,
2013-04-27 15:43:00,65.3,49.2,30.15,SSW,212,5.6,25.2,56,0.00,,,0.01,VWS V14.01,2013-04-27 19:43:00,
2013-04-27 15:48:00,65.4,49.3,30.15,South,174,4.2,25.2,56,0.00,,,0.01,VWS V14.01,2013-04-27 19:48:00,
2013-04-27 15:53:00,64.6,49.0,30.14,SSE,152,7.0,25.2,57,0.00,,,0.01,VWS V14.01,2013-04-27 19:53:00,
2013-04-27 15:58:00,64.2,49.6,30.14,SSW,204,12.6,25.2,59,0.00,,,0.01,VWS V14.01,2013-04-27 19:58:00,
2013-04-27 16:00:00,64.4,49.3,30.14,South,173,5.6,25.2,58,0.00,,,0.01,VWS V14.01,2013-04-27 20:00:00,
2013-04-27 16:03:00,65.1,50.0,30.14,South,183,4.2,12.6,58,0.00,,,0.01,VWS V14.01,2013-04-27 20:03:00,
2013-04-27 16:08:00,65.3,49.7,30.14,SSW,192,9.8,18.2,57,0.00,,,0.01,VWS V14.01,2013-04-27 20:08:00,
2013-04-27 16:13:00,65.3,49.7,30.14,South,181,9.8,18.2,57,0.00,,,0.01,VWS V14.01,2013-04-27 20:13:00,
2013-04-27 16:18:00,65.9,49.8,30.14,WSW,245,14.0,19.6,56,0.00,,,0.01,VWS V14.01,2013-04-27 20:18:00,
2013-04-27 16:23:00,65.6,50.0,30.14,SW,221,9.8,19.6,57,0.00,,,0.01,VWS V14.01,2013-04-27 20:23:00,
2013-04-27 16:28:00,64.9,49.8,30.14,South,188,8.4,19.6,58,0.00,,,0.01,VWS V14.01,2013-04-27 20:28:00,
2013-04-27 16:33:00,64.5,49.4,30.14,SSW,201,5.6,19.6,58,0.00,,,0.01,VWS V14.01,2013-04-27 20:33:00,
2013-04-27 16:38:00,64.4,49.8,30.13,SW,223,7.0,21.0,59,0.00,,,0.01,VWS V14.01,2013-04-27 20:38:00,
2013-04-27 16:43:00,64.9,49.3,30.13,SSW,211,2.8,21.0,57,0.00,,,0.01,VWS V14.01,2013-04-27 20:43:00,
2013-04-27 16:48:00,65.1,50.0,30.13,SSW,195,1.4,21.0,58,0.00,,,0.01,VWS V14.01,2013-04-27 20:48:00,
2013-04-27 16:53:00,66.0,50.3,30.13,SSW,203,8.4,21.0,57,0.00,,,0.01,VWS V14.01,2013-04-27 20:53:00,
2013-04-27 16:58:00,66.2,49.6,30.13,SSE,167,8.4,21.0,55,0.00,,,0.01,VWS V14.01,2013-04-27 20:58:00,
2013-04-27 17:00:00,64.4,49.3,30.14,South,173,5.6,25.2,58,0.00,,,0.01,VWS V14.01,2013-04-27 21:00:00,
2013-04-27 17:03:00,66.4,50.2,30.13,South,169,5.6,21.0,56,0.00,,,0.01,VWS V14.01,2013-04-27 21:03:00,
2013-04-27 17:08:00,66.7,50.0,30.13,West,269,7.0,21.0,55,0.00,,,0.01,VWS V14.01,2013-04-27 21:08:00,
2013-04-27 17:13:00,66.8,50.1,30.13,SSW,212,2.8,21.0,55,0.00,,,0.01,VWS V14.01,2013-04-27 21:13:00,
2013-04-27 17:18:00,67.0,49.8,30.13,SSW,201,14.0,21.0,54,0.00,,,0.01,VWS V14.01,2013-04-27 21:18:00,
2013-04-27 17:23:00,66.0,49.4,30.13,SW,233,5.6,21.0,55,0.00,,,0.01,VWS V14.01,2013-04-27 21:23:00,
2013-04-27 17:28:00,65.7,49.6,30.12,SW,221,4.2,21.0,56,0.00,,,0.01,VWS V14.01,2013-04-27 21:28:00,
2013-04-27 17:33:00,65.4,49.3,30.12,SSW,212,2.8,21.0,56,0.00,,,0.01,VWS V14.01,2013-04-27 21:33:00,
2013-04-27 17:38:00,65.6,49.5,30.12,WSW,245,5.6,21.0,56,0.00,,,0.01,VWS V14.01,2013-04-27 21:38:00,
2013-04-27 17:43:00,65.9,49.8,30.12,WSW,249,4.2,21.0,56,0.00,,,0.01,VWS V14.01,2013-04-27 21:43:00,
2013-04-27 17:48:00,66.0,49.4,30.12,SSE,163,4.2,21.0,55,0.00,,,0.01,VWS V14.01,2013-04-27 21:48:00,
2013-04-27 17:53:00,65.9,49.3,30.12,SW,232,2.8,21.0,55,0.00,,,0.01,VWS V14.01,2013-04-27 21:53:00,
2013-04-27 17:58:00,65.5,48.9,30.12,SE,135,4.2,21.0,55,0.00,,,0.01,VWS V14.01,2013-04-27 21:58:00,
2013-04-27 18:00:00,65.4,48.8,30.12,SW,225,4.2,21.0,55,0.00,,,0.01,VWS V14.01,2013-04-27 22:00:00,
2013-04-27 18:03:00,65.3,48.7,30.12,SW,228,5.6,9.8,55,0.00,,,0.01,VWS V14.01,2013-04-27 22:03:00,
2013-04-27 18:08:00,65.5,48.9,30.12,WSW,243,5.6,11.2,55,0.00,,,0.01,VWS V14.01,2013-04-27 22:08:00,
2013-04-27 18:13:00,65.7,49.1,30.12,SW,217,2.8,11.2,55,0.00,,,0.01,VWS V14.01,2013-04-27 22:13:00,
2013-04-27 18:18:00,65.7,49.1,30.12,South,172,8.4,12.6,55,0.00,,,0.01,VWS V14.01,2013-04-27 22:18:00,
2013-04-27 18:23:00,64.9,48.4,30.12,SSE,165,11.2,18.2,55,0.00,,,0.01,VWS V14.01,2013-04-27 22:23:00,
2013-04-27 18:28:00,63.6,47.6,30.12,SE,141,8.4,18.2,56,0.00,,,0.01,VWS V14.01,2013-04-27 22:28:00,
2013-04-27 18:32:00,63.0,48.0,30.12,SE,128,9.8,18.2,58,0.00,,,0.01,VWS V14.01,2013-04-27 22:32:00,
2013-04-27 18:37:00,62.4,47.5,30.12,SSE,155,11.2,18.2,58,0.00,,,0.01,VWS V14.01,2013-04-27 22:37:00,
2013-04-27 18:42:00,61.6,47.6,30.11,SSE,158,12.6,18.2,60,0.00,,,0.01,VWS V14.01,2013-04-27 22:42:00,
2013-04-27 18:47:00,61.2,47.7,30.12,SSE,167,11.2,18.2,61,0.00,,,0.01,VWS V14.01,2013-04-27 22:47:00,
2013-04-27 18:52:00,61.3,48.2,30.12,South,174,5.6,18.2,62,0.00,,,0.01,VWS V14.01,2013-04-27 22:52:00,
2013-04-27 18:57:00,61.3,47.8,30.12,SSE,165,9.8,18.2,61,0.00,,,0.01,VWS V14.01,2013-04-27 22:57:00,
2013-04-27 19:00:00,65.4,48.8,30.12,SW,225,4.2,21.0,55,0.00,,,0.01,VWS V14.01,2013-04-27 23:00:00,
2013-04-27 19:02:00,61.0,47.5,30.12,SSE,167,7.0,18.2,61,0.00,,,0.01,VWS V14.01,2013-04-27 23:02:00,
2013-04-27 19:07:00,60.6,47.5,30.12,SSE,159,5.6,18.2,62,0.00,,,0.01,VWS V14.01,2013-04-27 23:07:00,
2013-04-27 19:12:00,60.0,47.4,30.12,SSE,152,7.0,18.2,63,0.00,,,0.01,VWS V14.01,2013-04-27 23:12:00,
2013-04-27 19:17:00,59.6,47.0,30.12,SSW,197,11.2,18.2,63,0.00,,,0.01,VWS V14.01,2013-04-27 23:17:00,
2013-04-27 19:22:00,59.5,47.3,30.12,SSE,158,8.4,18.2,64,0.00,,,0.01,VWS V14.01,2013-04-27 23:22:00,
2013-04-27 19:27:00,59.4,47.2,30.11,South,171,14.0,18.2,64,0.00,,,0.01,VWS V14.01,2013-04-27 23:27:00,
2013-04-27 19:32:00,59.2,47.0,30.11,SSE,162,11.2,18.2,64,0.00,,,0.01,VWS V14.01,2013-04-27 23:32:00,
2013-04-27 19:37:00,58.9,46.8,30.11,SSW,203,7.0,18.2,64,0.00,,,0.01,VWS V14.01,2013-04-27 23:37:00,
2013-04-27 19:42:00,58.6,46.5,30.11,SSE,158,9.8,18.2,64,0.00,,,0.01,VWS V14.01,2013-04-27 23:42:00,
2013-04-27 19:47:00,58.4,46.7,30.11,SSE,165,5.6,18.2,65,0.00,,,0.01,VWS V14.01,2013-04-27 23:47:00,
2013-04-27 19:52:00,58.2,46.1,30.11,South,169,7.0,18.2,64,0.00,,,0.01,VWS V14.01,2013-04-27 23:52:00,
2013-04-27 19:57:00,57.9,46.2,30.11,SSE,155,5.6,18.2,65,0.00,,,0.01,VWS V14.01,2013-04-27 23:57:00,
2013-04-27 20:00:00,57.8,46.1,30.11,SSE,160,5.6,18.2,65,0.00,,,0.01,VWS V14.01,2013-04-28 00:00:00,
2013-04-27 20:02:00,57.6,46.3,30.11,South,173,7.0,11.2,66,0.00,,,0.01,VWS V14.01,2013-04-28 00:02:00,
2013-04-27 20:07:00,57.2,46.0,30.11,SSE,162,9.8,11.2,66,0.00,,,0.01,VWS V14.01,2013-04-28 00:07:00,
2013-04-27 20:12:00,56.7,45.5,30.11,SSE,159,8.4,11.2,66,0.00,,,0.01,VWS V14.01,2013-04-28 00:12:00,
2013-04-27 20:17:00,56.6,45.8,30.11,SSE,162,7.0,11.2,67,0.00,,,0.01,VWS V14.01,2013-04-28 00:17:00,
2013-04-27 20:22:00,56.1,45.7,30.11,SSE,162,7.0,11.2,68,0.00,,,0.01,VWS V14.01,2013-04-28 00:22:00,
2013-04-27 20:27:00,55.7,45.3,30.11,SE,145,8.4,12.6,68,0.00,,,0.01,VWS V14.01,2013-04-28 00:27:00,
2013-04-27 20:32:00,55.2,45.2,30.11,SSE,160,8.4,12.6,69,0.00,,,0.01,VWS V14.01,2013-04-28 00:32:00,
2013-04-27 20:37:00,54.8,45.2,30.11,SSE,160,5.6,12.6,70,0.00,,,0.01,VWS V14.01,2013-04-28 00:37:00,
2013-04-27 20:42:00,54.6,45.4,30.11,SSE,162,5.6,12.6,71,0.00,,,0.01,VWS V14.01,2013-04-28 00:42:00,
2013-04-27 20:47:00,54.4,45.2,30.11,SSE,162,8.4,12.6,71,0.00,,,0.01,VWS V14.01,2013-04-28 00:47:00,
2013-04-27 20:52:00,53.9,45.1,30.11,South,176,5.6,12.6,72,0.00,,,0.01,VWS V14.01,2013-04-28 00:52:00,
2013-04-27 20:57:00,53.6,44.8,30.11,SW,225,1.4,12.6,72,0.00,,,0.01,VWS V14.01,2013-04-28 00:57:00,
2013-04-27 21:00:00,57.8,46.1,30.11,SSE,160,5.6,18.2,65,0.00,,,0.01,VWS V14.01,2013-04-28 01:00:00,
2013-04-27 21:02:00,53.3,44.9,30.11,SSW,207,2.8,12.6,73,0.00,,,0.01,VWS V14.01,2013-04-28 01:02:00,
2013-04-27 21:07:00,53.2,44.8,30.11,SSW,207,1.4,12.6,73,0.00,,,0.01,VWS V14.01,2013-04-28 01:07:00,
2013-04-27 21:12:00,52.8,44.4,30.11,SSW,212,1.4,12.6,73,0.00,,,0.01,VWS V14.01,2013-04-28 01:12:00,
2013-04-27 21:17:00,52.4,44.7,30.11,SW,217,1.4,12.6,75,0.00,,,0.01,VWS V14.01,2013-04-28 01:17:00,
2013-04-27 21:22:00,52.1,44.4,30.11,SW,217,0.0,12.6,75,0.00,,,0.01,VWS V14.01,2013-04-28 01:22:00,
2013-04-27 21:27:00,51.7,44.4,30.11,South,190,0.0,12.6,76,0.00,,,0.01,VWS V14.01,2013-04-28 01:27:00,
2013-04-27 21:32:00,51.0,44.0,30.11,South,190,0.0,12.6,77,0.00,,,0.01,VWS V14.01,2013-04-28 01:32:00,
2013-04-27 21:37:00,50.5,43.9,30.11,South,190,0.0,12.6,78,0.00,,,0.01,VWS V14.01,2013-04-28 01:37:00,
2013-04-27 21:42:00,49.8,43.9,30.11,South,190,0.0,12.6,80,0.00,,,0.01,VWS V14.01,2013-04-28 01:42:00,
2013-04-27 21:47:00,49.5,43.9,30.11,South,190,0.0,12.6,81,0.00,,,0.01,VWS V14.01,2013-04-28 01:47:00,
2013-04-27 21:52:00,49.4,44.1,30.11,SSE,147,0.0,12.6,82,0.00,,,0.01,VWS V14.01,2013-04-28 01:52:00,
2013-04-27 21:57:00,49.3,44.0,30.11,SSE,147,0.0,12.6,82,0.00,,,0.01,VWS V14.01,2013-04-28 01:57:00,
2013-04-27 22:00:00,49.1,43.8,30.11,SE,139,0.0,12.6,82,0.00,,,0.01,VWS V14.01,2013-04-28 02:00:00,
2013-04-27 22:02:00,49.2,44.0,30.12,ESE,103,0.0,1.4,82,0.00,,,0.01,VWS V14.01,2013-04-28 02:02:00,
2013-04-27 22:07:00,49.1,43.8,30.11,ESE,106,0.0,1.4,82,0.00,,,0.01,VWS V14.01,2013-04-28 02:07:00,
2013-04-27 22:12:00,48.8,43.9,30.11,SE,138,0.0,1.4,83,0.00,,,0.01,VWS V14.01,2013-04-28 02:12:00,
2013-04-27 22:17:00,49.1,43.8,30.11,SE,126,0.0,2.8,82,0.00,,,0.01,VWS V14.01,2013-04-28 02:17:00,
2013-04-27 22:22:00,48.8,43.9,30.11,South,176,0.0,4.2,83,0.00,,,0.01,VWS V14.01,2013-04-28 02:22:00,
2013-04-27 22:27:00,47.6,43.0,30.12,South,191,1.4,4.2,84,0.00,,,0.01,VWS V14.01,2013-04-28 02:27:00,
2013-04-27 22:32:00,45.9,40.4,30.11,SSE,157,2.8,4.2,81,0.00,,,0.01,VWS V14.01,2013-04-28 02:32:00,
2013-04-27 22:37:00,44.5,40.3,30.11,SW,221,0.0,4.2,85,0.00,,,0.01,VWS V14.01,2013-04-28 02:37:00,
2013-04-27 22:42:00,43.7,39.8,30.11,ESE,116,0.0,4.2,86,0.00,,,0.01,VWS V14.01,2013-04-28 02:42:00,
2013-04-27 22:47:00,43.6,40.3,30.11,SSW,197,0.0,4.2,88,0.00,,,0.01,VWS V14.01,2013-04-28 02:47:00,
2013-04-27 22:52:00,43.7,40.1,30.11,WSW,249,0.0,7.0,87,0.00,,,0.01,VWS V14.01,2013-04-28 02:52:00,
2013-04-27 22:57:00,43.2,40.2,30.11,SSE,157,0.0,7.0,89,0.00,,,0.01,VWS V14.01,2013-04-28 02:57:00,
2013-04-27 23:00:00,49.1,43.8,30.11,SE,139,0.0,12.6,82,0.00,,,0.01,VWS V14.01,2013-04-28 03:00:00,
2013-04-27 23:02:00,42.8,39.2,30.11,West,259,0.0,7.0,87,0.00,,,0.01,VWS V14.01,2013-04-28 03:02:00,
2013-04-27 23:07:00,42.3,38.4,30.11,South,183,0.0,7.0,86,0.00,,,0.01,VWS V14.01,2013-04-28 03:07:00,
2013-04-27 23:12:00,41.7,39.3,30.11,SSW,200,0.0,7.0,91,0.00,,,0.01,VWS V14.01,2013-04-28 03:12:00,
2013-04-27 23:17:00,42.1,39.4,30.10,ESE,109,2.8,7.0,90,0.00,,,0.01,VWS V14.01,2013-04-28 03:17:00,
2013-04-27 23:22:00,42.6,40.4,30.11,East,95,1.4,7.0,92,0.00,,,0.01,VWS V14.01,2013-04-28 03:22:00,
2013-04-27 23:27:00,44.3,41.8,30.11,WSW,245,0.0,7.0,91,0.00,,,0.01,VWS V14.01,2013-04-28 03:27:00,
2013-04-27 23:32:00,44.3,41.0,30.11,South,183,0.0,7.0,88,0.00,,,0.01,VWS V14.01,2013-04-28 03:32:00,
2013-04-27 23:37:00,43.3,40.3,30.10,South,183,0.0,7.0,89,0.00,,,0.01,VWS V14.01,2013-04-28 03:37:00,
2013-04-27 23:42:00,42.8,39.2,30.11,SSE,160,0.0,7.0,87,0.00,,,0.01,VWS V14.01,2013-04-28 03:42:00,
2013-04-27 23:47:00,41.2,37.6,30.11,SE,134,1.4,7.0,87,0.00,,,0.01,VWS V14.01,2013-04-28 03:47:00,
2013-04-27 23:52:00,40.3,38.2,30.10,SSW,194,0.0,7.0,92,0.00,,,0.01,VWS V14.01,2013-04-28 03:52:00,
2013-04-27 23:57:00,40.0,37.3,30.10,SSW,194,0.0,7.0,90,0.00,,,0.01,VWS V14.01,2013-04-28 03:57:00,